createdAt,value
2022-12-03T00:02:15.343Z,15.00
2022-12-03T00:04:41.921Z,14.82
2022-12-03T00:07:08.304Z,15.30
2022-12-03T00:09:34.995Z,14.60
2022-12-03T00:12:01.472Z,14.52
2022-12-03T00:14:27.955Z,15.40
2022-12-03T00:16:54.301Z,13.73
2022-12-03T00:19:21.029Z,14.27
2022-12-03T00:21:47.361Z,14.10
2022-12-03T00:24:13.829Z,14.20
2022-12-03T00:26:40.222Z,14.23
2022-12-03T00:29:07.070Z,15.07
2022-12-03T00:31:33.495Z,14.68
2022-12-03T00:33:59.883Z,13.95
2022-12-03T00:36:27.551Z,14.07
2022-12-03T00:38:53.942Z,14.40
2022-12-03T00:41:20.375Z,15.38
2022-12-03T00:43:46.720Z,14.93
2022-12-03T00:46:15.790Z,15.18
2022-12-03T00:48:46.135Z,13.32
2022-12-03T00:51:13.069Z,15.80
2022-12-03T00:53:39.552Z,13.90
2022-12-03T00:56:06.437Z,15.30
2022-12-03T00:58:32.987Z,14.35
2022-12-03T01:00:59.363Z,15.52
2022-12-03T01:03:25.779Z,16.35
2022-12-03T01:05:52.137Z,15.27
2022-12-03T01:08:18.618Z,13.93
2022-12-03T01:10:44.953Z,14.68
2022-12-03T01:13:11.476Z,15.10
2022-12-03T01:15:37.865Z,15.75
2022-12-03T01:18:04.375Z,14.60
2022-12-03T01:20:30.730Z,15.45
2022-12-03T01:22:57.124Z,15.10
2022-12-03T01:25:23.582Z,15.25
2022-12-03T01:27:50.409Z,15.02
2022-12-03T01:30:16.750Z,17.23
2022-12-03T01:32:43.166Z,14.95
2022-12-03T01:35:09.705Z,16.42
2022-12-03T01:37:36.036Z,15.50
2022-12-03T01:40:02.672Z,14.63
2022-12-03T01:42:34.872Z,16.63
2022-12-03T01:45:02.810Z,15.35
2022-12-03T01:47:33.403Z,15.13
2022-12-03T01:50:07.020Z,15.65
2022-12-03T01:52:38.385Z,16.65
2022-12-03T01:55:11.498Z,17.73
2022-12-03T01:57:45.883Z,17.73
2022-12-03T02:00:24.809Z,16.35
2022-12-03T02:02:54.943Z,15.90
2022-12-03T02:05:26.077Z,17.25
2022-12-03T02:07:53.164Z,17.27
2022-12-03T02:10:26.017Z,17.65
2022-12-03T02:12:59.531Z,17.60
2022-12-03T02:15:26.159Z,16.70
2022-12-03T02:17:53.232Z,16.85
2022-12-03T02:20:19.932Z,17.15
2022-12-03T02:23:10.670Z,17.08
2022-12-03T02:25:37.895Z,17.45
2022-12-03T02:28:06.081Z,16.88
2022-12-03T02:30:32.991Z,16.60
2022-12-03T02:33:00.099Z,16.65
2022-12-03T02:35:32.676Z,17.60
2022-12-03T02:38:13.772Z,17.45
2022-12-03T02:40:41.902Z,16.88
2022-12-03T02:43:09.575Z,17.60
2022-12-03T02:45:39.490Z,17.30
2022-12-03T02:48:09.315Z,17.63
2022-12-03T02:50:45.986Z,16.85
2022-12-03T02:53:17.285Z,16.92
2022-12-03T02:55:44.261Z,17.00
2022-12-03T02:58:11.379Z,17.20
2022-12-03T03:00:39.013Z,16.52
2022-12-03T03:03:08.058Z,17.00
2022-12-03T03:05:37.767Z,16.98
2022-12-03T03:08:05.313Z,17.33
2022-12-03T03:10:34.228Z,16.23
2022-12-03T03:13:03.703Z,17.88
2022-12-03T03:15:30.286Z,16.48
2022-12-03T03:17:57.574Z,16.38
2022-12-03T03:20:23.955Z,17.95
2022-12-03T03:22:50.287Z,16.00
2022-12-03T03:25:21.000Z,17.08
2022-12-03T03:27:47.667Z,16.63
2022-12-03T03:30:16.930Z,17.38
2022-12-03T03:32:43.343Z,15.43
2022-12-03T03:35:11.470Z,16.55
2022-12-03T03:37:38.323Z,16.80
2022-12-03T03:40:05.274Z,15.85
2022-12-03T03:42:31.728Z,16.98
2022-12-03T03:44:58.339Z,17.13
2022-12-03T03:47:25.640Z,15.85
2022-12-03T03:49:52.949Z,16.25
2022-12-03T03:52:19.619Z,17.25
2022-12-03T03:54:46.956Z,16.42
2022-12-03T03:57:13.401Z,16.23
2022-12-03T03:59:39.778Z,16.92
2022-12-03T04:02:06.761Z,14.82
2022-12-03T04:04:36.601Z,17.95
2022-12-03T04:07:03.215Z,16.60
2022-12-03T04:09:29.570Z,16.83
2022-12-03T04:12:15.425Z,15.85
2022-12-03T04:14:41.777Z,17.45
2022-12-03T04:17:08.133Z,16.70
2022-12-03T04:19:35.199Z,17.05
2022-12-03T04:22:20.516Z,16.27
2022-12-03T04:24:46.927Z,16.80
2022-12-03T04:27:31.821Z,17.73
2022-12-03T04:29:58.259Z,17.38
2022-12-03T04:32:43.120Z,16.58
2022-12-03T04:35:28.541Z,17.08
2022-12-03T04:37:55.133Z,18.25
2022-12-03T04:40:40.249Z,17.05
2022-12-03T04:43:06.901Z,16.85
2022-12-03T04:45:33.303Z,18.05
2022-12-03T04:47:59.779Z,17.10
2022-12-03T04:50:26.232Z,16.48
2022-12-03T04:52:52.607Z,19.02
2022-12-03T04:55:18.976Z,17.63
2022-12-03T04:57:45.366Z,18.15
2022-12-03T05:00:12.364Z,17.30
2022-12-03T05:02:38.963Z,16.13
2022-12-03T05:05:05.884Z,17.95
2022-12-03T05:07:32.316Z,16.85
2022-12-03T05:09:58.685Z,17.45
2022-12-03T05:12:25.079Z,18.42
2022-12-03T05:14:51.816Z,16.65
2022-12-03T05:17:18.480Z,17.20
2022-12-03T05:20:03.307Z,17.00
2022-12-03T05:22:29.789Z,17.15
2022-12-03T05:24:56.563Z,17.05
2022-12-03T05:27:24.190Z,17.92
2022-12-03T05:29:51.163Z,16.70
2022-12-03T05:32:17.628Z,18.05
2022-12-03T05:34:44.086Z,17.70
2022-12-03T05:37:10.859Z,17.40
2022-12-03T05:39:37.579Z,17.80
2022-12-03T05:42:23.018Z,18.83
2022-12-03T05:44:49.737Z,18.23
2022-12-03T05:47:16.163Z,17.17
2022-12-03T05:49:42.546Z,17.70
2022-12-03T05:52:10.310Z,18.08
2022-12-03T05:54:36.644Z,17.48
2022-12-03T05:57:03.317Z,18.40
2022-12-03T05:59:29.757Z,18.25
2022-12-03T06:01:56.237Z,17.23
2022-12-03T06:04:22.620Z,16.75
2022-12-03T06:06:49.717Z,19.52
2022-12-03T06:09:16.166Z,17.30
2022-12-03T06:11:42.616Z,17.45
2022-12-03T06:14:09.087Z,16.58
2022-12-03T06:16:35.668Z,18.42
2022-12-03T06:19:02.048Z,17.92
2022-12-03T06:21:28.514Z,16.98
2022-12-03T06:23:54.902Z,18.23
2022-12-03T06:26:21.499Z,18.35
2022-12-03T06:28:49.266Z,18.67
2022-12-03T06:31:15.672Z,18.05
2022-12-03T06:33:42.153Z,19.10
2022-12-03T06:36:08.703Z,17.77
2022-12-03T06:38:35.041Z,18.92
2022-12-03T06:41:02.210Z,18.40
2022-12-03T06:43:28.578Z,18.08
2022-12-03T06:45:55.062Z,17.25
2022-12-03T06:48:21.404Z,19.75
2022-12-03T06:50:47.888Z,18.77
2022-12-03T06:53:14.263Z,18.17
2022-12-03T06:55:40.609Z,18.02
2022-12-03T06:58:07.114Z,18.50
2022-12-03T07:00:34.345Z,18.13
2022-12-03T07:03:01.073Z,19.25
2022-12-03T07:05:27.752Z,18.42
2022-12-03T07:07:55.257Z,20.48
2022-12-03T07:10:21.893Z,19.00
2022-12-03T07:12:48.324Z,17.23
2022-12-03T07:15:14.721Z,18.50
2022-12-03T07:17:41.065Z,18.73
2022-12-03T07:20:08.041Z,19.00
2022-12-03T07:22:34.504Z,18.63
2022-12-03T07:25:00.991Z,20.17
2022-12-03T07:27:27.348Z,17.73
2022-12-03T07:29:53.797Z,19.25
2022-12-03T07:32:20.143Z,19.35
2022-12-03T07:34:46.562Z,19.35
2022-12-03T07:37:13.403Z,19.17
2022-12-03T07:39:40.485Z,20.00
2022-12-03T07:42:09.175Z,19.05
2022-12-03T07:44:35.669Z,18.75
2022-12-03T07:47:02.315Z,19.27
2022-12-03T07:49:28.740Z,20.08
2022-12-03T07:51:56.747Z,19.50
2022-12-03T07:54:24.181Z,19.52
2022-12-03T07:56:50.613Z,19.17
2022-12-03T07:59:17.565Z,19.60
2022-12-03T08:01:44.370Z,19.58
2022-12-03T08:04:12.768Z,19.88
2022-12-03T08:06:39.227Z,21.20
2022-12-03T08:09:05.586Z,20.88
2022-12-03T08:11:35.850Z,19.48
2022-12-03T08:14:10.563Z,20.58
2022-12-03T08:16:39.532Z,19.30
2022-12-03T08:19:10.742Z,20.48
2022-12-03T08:21:37.657Z,19.40
2022-12-03T08:24:21.354Z,19.67
2022-12-03T08:26:48.982Z,19.05
2022-12-03T08:29:18.022Z,18.83
2022-12-03T08:31:49.844Z,19.42
2022-12-03T08:34:27.308Z,18.80
2022-12-03T08:37:01.359Z,20.73
2022-12-03T08:39:37.731Z,18.42
2022-12-03T08:42:32.024Z,19.00
2022-12-03T08:45:40.517Z,19.02
2022-12-03T08:48:24.200Z,19.33
2022-12-03T08:50:50.588Z,18.13
2022-12-03T08:53:32.984Z,18.48
2022-12-03T08:56:05.499Z,18.60
2022-12-03T08:58:43.692Z,19.20
2022-12-03T09:01:10.057Z,19.10
2022-12-03T09:03:38.440Z,19.85
2022-12-03T09:06:05.603Z,20.25
2022-12-03T09:08:32.028Z,20.25
2022-12-03T09:10:58.409Z,20.15
2022-12-03T09:13:24.854Z,19.40
2022-12-03T09:15:51.223Z,20.05
2022-12-03T09:18:17.663Z,19.55
2022-12-03T09:20:44.149Z,18.65
2022-12-03T09:23:10.701Z,19.88
2022-12-03T09:25:37.131Z,18.17
2022-12-03T09:28:03.906Z,18.85
2022-12-03T09:30:30.309Z,18.95
2022-12-03T09:32:56.752Z,17.95
2022-12-03T09:35:23.475Z,17.75
2022-12-03T09:37:49.815Z,16.77
2022-12-03T09:40:16.257Z,18.17
2022-12-03T09:42:42.779Z,17.63
2022-12-03T09:45:12.146Z,18.40
2022-12-03T09:47:45.143Z,19.00
2022-12-03T09:50:19.138Z,16.48
2022-12-03T09:52:46.835Z,18.73
2022-12-03T09:55:17.038Z,17.77
2022-12-03T09:57:43.825Z,18.35
2022-12-03T10:00:30.289Z,17.90
2022-12-03T10:03:01.244Z,15.90
2022-12-03T10:05:28.637Z,16.42
2022-12-03T10:08:03.142Z,17.60
2022-12-03T10:10:29.669Z,17.40
2022-12-03T10:12:56.208Z,16.92
2022-12-03T10:15:23.874Z,17.10
2022-12-03T10:17:53.176Z,18.00
2022-12-03T10:20:21.757Z,17.27
2022-12-03T10:22:48.775Z,17.63
2022-12-03T10:25:24.338Z,18.85
2022-12-03T10:28:01.108Z,16.98
2022-12-03T10:30:28.999Z,17.15
2022-12-03T10:32:57.952Z,18.42
2022-12-03T10:35:26.164Z,17.08
2022-12-03T10:38:07.279Z,16.63
2022-12-03T10:40:37.569Z,18.25
2022-12-03T10:43:18.900Z,16.75
2022-12-03T10:45:49.569Z,18.40
2022-12-03T10:48:17.362Z,18.23
2022-12-03T10:51:02.353Z,16.75
2022-12-03T10:53:31.494Z,17.08
2022-12-03T10:56:01.733Z,19.35
2022-12-03T10:58:30.977Z,18.02
2022-12-03T11:00:59.182Z,16.98
2022-12-03T11:03:30.695Z,16.83
2022-12-03T11:06:00.091Z,18.98
2022-12-03T11:08:34.959Z,18.95
2022-12-03T11:11:16.981Z,18.23
2022-12-03T11:13:47.563Z,17.40
2022-12-03T11:16:34.594Z,17.85
2022-12-03T11:19:02.153Z,17.30
2022-12-03T11:21:31.718Z,17.13
2022-12-03T11:24:18.872Z,18.05
2022-12-03T11:26:45.167Z,18.58
2022-12-03T11:29:14.661Z,17.38
2022-12-03T11:31:46.602Z,16.17
2022-12-03T11:34:18.825Z,18.83
2022-12-03T11:37:13.320Z,19.20
2022-12-03T11:39:52.387Z,18.00
2022-12-03T11:42:28.337Z,19.27
2022-12-03T11:45:03.832Z,19.13
2022-12-03T11:47:31.424Z,16.25
2022-12-03T11:49:58.032Z,17.30
2022-12-03T11:52:31.405Z,18.02
2022-12-03T11:55:04.164Z,17.00
2022-12-03T11:57:34.716Z,19.02
2022-12-03T12:00:06.959Z,18.13
2022-12-03T12:02:38.686Z,16.83
2022-12-03T12:05:34.796Z,16.80
2022-12-03T12:08:02.769Z,16.52
2022-12-03T12:10:49.027Z,17.38
2022-12-03T12:13:30.793Z,17.52
2022-12-03T12:16:01.691Z,18.10
2022-12-03T12:18:37.120Z,18.15
2022-12-03T12:21:42.033Z,16.00
2022-12-03T12:24:47.471Z,17.50
2022-12-03T12:27:33.310Z,16.27
2022-12-03T12:30:14.126Z,17.60
2022-12-03T12:32:40.930Z,16.45
2022-12-03T12:35:15.738Z,18.38
2022-12-03T12:37:59.770Z,17.55
2022-12-03T12:40:29.916Z,15.52
2022-12-03T12:42:59.493Z,16.42
2022-12-03T12:45:29.097Z,16.77
2022-12-03T12:48:14.756Z,16.40
2022-12-03T12:50:44.220Z,15.63
2022-12-03T12:53:10.502Z,16.63
2022-12-03T12:55:38.389Z,16.33
2022-12-03T12:58:16.943Z,16.17
2022-12-03T13:00:48.841Z,16.88
2022-12-03T13:03:17.559Z,17.02
2022-12-03T13:05:46.903Z,16.23
2022-12-03T13:08:24.427Z,17.40
2022-12-03T13:10:53.692Z,18.30
2022-12-03T13:13:24.721Z,17.02
2022-12-03T13:16:17.813Z,17.88
2022-12-03T13:18:55.151Z,17.00
2022-12-03T13:21:33.465Z,16.65
2022-12-03T13:24:00.839Z,16.90
2022-12-03T13:26:39.611Z,15.65
2022-12-03T13:29:18.243Z,15.80
2022-12-03T13:31:54.420Z,16.55
2022-12-03T13:34:27.722Z,15.88
2022-12-03T13:36:58.063Z,16.35
2022-12-03T13:39:35.057Z,16.40
2022-12-03T13:42:37.007Z,15.90
2022-12-03T13:45:06.724Z,15.95
2022-12-03T13:47:33.062Z,15.27
2022-12-03T13:50:04.258Z,15.63
2022-12-03T13:52:32.573Z,16.95
2022-12-03T13:54:59.002Z,15.93
2022-12-03T13:57:25.340Z,16.15
2022-12-03T13:59:52.271Z,14.98
2022-12-03T14:02:18.974Z,15.13
2022-12-03T14:04:45.528Z,15.90
2022-12-03T14:07:12.086Z,16.75
2022-12-03T14:09:38.492Z,16.70
2022-12-03T14:12:23.811Z,17.55
2022-12-03T14:14:50.151Z,16.38
2022-12-03T14:17:16.608Z,16.83
2022-12-03T14:19:43.520Z,16.20
2022-12-03T14:22:09.993Z,14.98
2022-12-03T14:24:37.317Z,15.40
2022-12-03T14:27:03.852Z,16.38
2022-12-03T14:29:30.336Z,15.90
2022-12-03T14:31:56.806Z,15.25
2022-12-03T14:34:23.342Z,15.27
2022-12-03T14:36:50.397Z,16.05
2022-12-03T14:39:16.855Z,16.75
2022-12-03T14:42:01.697Z,15.80
2022-12-03T14:44:28.143Z,15.52
2022-12-03T14:46:57.302Z,15.90
2022-12-03T14:49:24.396Z,16.17
2022-12-03T14:51:50.788Z,16.63
2022-12-03T14:54:17.125Z,16.13
2022-12-03T14:56:43.576Z,16.50
2022-12-03T14:59:10.001Z,16.00
2022-12-03T15:01:36.353Z,16.40
2022-12-03T15:04:02.890Z,17.65
2022-12-03T15:06:29.243Z,16.42
2022-12-03T15:08:55.604Z,16.80
2022-12-03T15:11:22.122Z,15.27
2022-12-03T15:13:48.662Z,16.80
2022-12-03T15:16:15.414Z,15.65
2022-12-03T15:18:41.885Z,15.50
2022-12-03T15:21:08.249Z,16.20
2022-12-03T15:23:34.665Z,16.23
2022-12-03T15:26:01.021Z,15.90
2022-12-03T15:28:27.625Z,16.63
2022-12-03T15:30:54.045Z,15.88
2022-12-03T15:33:20.493Z,15.95
2022-12-03T15:35:46.879Z,16.83
2022-12-03T15:38:13.464Z,16.38
2022-12-03T15:40:39.959Z,17.40
2022-12-03T15:43:07.779Z,18.60
2022-12-03T15:45:34.406Z,18.30
2022-12-03T15:48:01.425Z,17.50
2022-12-03T15:50:28.389Z,17.67
2022-12-03T15:52:54.844Z,16.05
2022-12-03T15:55:21.781Z,15.00
2022-12-03T15:57:49.179Z,14.10
2022-12-03T16:00:16.990Z,13.93
2022-12-03T16:02:49.104Z,13.75
2022-12-03T16:05:18.873Z,12.88
2022-12-03T16:07:45.372Z,14.40
2022-12-03T16:10:12.059Z,14.00
2022-12-03T16:12:38.432Z,15.60
2022-12-03T16:15:05.621Z,13.52
2022-12-03T16:17:32.166Z,13.68
2022-12-03T16:19:58.492Z,12.13
2022-12-03T16:22:25.153Z,12.85
2022-12-03T16:24:51.589Z,13.02
2022-12-03T16:27:22.749Z,13.30
2022-12-03T16:29:52.094Z,13.23
2022-12-03T16:32:18.703Z,13.32
2022-12-03T16:34:45.085Z,13.02
2022-12-03T16:37:11.636Z,13.57
2022-12-03T16:39:46.769Z,12.80
2022-12-03T16:42:17.260Z,12.45
2022-12-03T16:45:02.699Z,13.80
2022-12-03T16:47:33.585Z,14.05
2022-12-03T16:50:01.788Z,13.35
2022-12-03T16:52:28.218Z,14.05
2022-12-03T16:54:54.587Z,13.20
2022-12-03T16:57:20.966Z,13.57
2022-12-03T16:59:47.295Z,15.63
2022-12-03T17:02:13.997Z,15.02
2022-12-03T17:04:40.592Z,17.15
2022-12-03T17:07:06.940Z,13.50
2022-12-03T17:09:33.337Z,14.35
2022-12-03T17:11:59.680Z,13.93
2022-12-03T17:14:31.451Z,15.27
2022-12-03T17:16:59.571Z,15.57
2022-12-03T17:19:26.041Z,15.02
2022-12-03T17:21:54.082Z,16.58
2022-12-03T17:24:21.354Z,15.75
2022-12-03T17:26:47.931Z,15.10
2022-12-03T17:29:14.302Z,15.35
2022-12-03T17:31:42.467Z,16.92
2022-12-03T17:34:09.703Z,14.43
2022-12-03T17:36:36.109Z,15.68
2022-12-03T17:39:02.608Z,15.88
2022-12-03T17:41:28.965Z,16.55
2022-12-03T17:43:55.333Z,15.25
2022-12-03T17:46:21.945Z,16.23
2022-12-03T17:48:48.383Z,15.38
2022-12-03T17:51:14.825Z,15.05
2022-12-03T17:53:41.263Z,15.40
2022-12-03T17:56:07.699Z,16.15
2022-12-03T17:58:34.631Z,15.02
2022-12-03T18:01:03.288Z,16.92
2022-12-03T18:03:30.314Z,16.40
2022-12-03T18:05:56.818Z,15.80
2022-12-03T18:08:23.392Z,17.00
2022-12-03T18:10:50.082Z,14.63
2022-12-03T18:13:16.524Z,16.55
2022-12-03T18:15:42.963Z,16.17
2022-12-03T18:18:09.392Z,15.88
2022-12-03T18:20:35.838Z,17.67
2022-12-03T18:23:02.473Z,17.20
2022-12-03T18:25:29.613Z,16.73
2022-12-03T18:27:56.552Z,17.02
2022-12-03T18:30:22.925Z,17.13
2022-12-03T18:32:50.654Z,16.10
2022-12-03T18:35:17.125Z,19.05
2022-12-03T18:37:43.718Z,17.33
2022-12-03T18:40:22.322Z,18.17
2022-12-03T18:42:48.778Z,19.35
2022-12-03T18:45:16.340Z,18.77
2022-12-03T18:47:43.230Z,19.88
2022-12-03T18:50:11.554Z,20.17
2022-12-03T18:52:38.035Z,20.27
2022-12-03T18:55:05.568Z,21.27
2022-12-03T18:57:32.039Z,21.23
2022-12-03T18:59:58.649Z,22.35
2022-12-03T19:03:01.363Z,21.92
2022-12-03T19:05:11.783Z,22.23
2022-12-03T19:07:38.217Z,21.92
2022-12-03T19:10:05.304Z,22.27
2022-12-03T19:12:32.754Z,22.73
2022-12-03T19:14:59.283Z,24.20
2022-12-03T19:17:27.126Z,23.00
2022-12-03T19:19:54.276Z,25.33
2022-12-03T19:22:20.967Z,24.15
2022-12-03T19:24:47.312Z,25.30
2022-12-03T19:27:14.107Z,26.00
2022-12-03T19:29:40.601Z,25.27
2022-12-03T19:32:07.253Z,27.40
2022-12-03T19:34:33.713Z,28.30
2022-12-03T19:37:00.095Z,27.15
2022-12-03T19:39:26.664Z,26.67
2022-12-03T19:41:53.029Z,26.70
2022-12-03T19:44:19.545Z,25.13
2022-12-03T19:46:45.950Z,27.33
2022-12-03T19:49:12.406Z,26.88
2022-12-03T19:51:38.787Z,25.60
2022-12-03T19:54:07.550Z,25.20
2022-12-03T19:56:35.134Z,25.85
2022-12-03T19:59:02.225Z,25.08
2022-12-03T20:01:30.850Z,25.77
2022-12-03T20:03:59.178Z,26.60
2022-12-03T20:06:28.926Z,25.77
2022-12-03T20:08:59.314Z,27.77
2022-12-03T20:11:28.727Z,26.35
2022-12-03T20:13:57.002Z,26.05
2022-12-03T20:16:24.656Z,27.67
2022-12-03T20:18:55.414Z,26.17
2022-12-03T20:21:21.788Z,25.90
2022-12-03T20:23:48.382Z,26.67
2022-12-03T20:26:18.380Z,26.77
2022-12-03T20:28:44.733Z,25.92
2022-12-03T20:31:14.376Z,26.90
2022-12-03T20:33:43.119Z,26.20
2022-12-03T20:36:11.154Z,26.83
2022-12-03T20:38:38.298Z,26.52
2022-12-03T20:41:10.301Z,26.35
2022-12-03T20:43:37.073Z,24.60
2022-12-03T20:46:07.926Z,25.50
2022-12-03T20:48:35.107Z,24.75
2022-12-03T20:51:06.190Z,26.27
2022-12-03T20:53:33.132Z,25.08
2022-12-03T20:56:01.018Z,25.98
2022-12-03T20:58:28.196Z,26.88
2022-12-03T21:00:54.738Z,26.75
2022-12-03T21:03:21.393Z,24.67
2022-12-03T21:05:47.961Z,25.67
2022-12-03T21:08:15.287Z,24.95
2022-12-03T21:10:45.271Z,27.35
2022-12-03T21:13:13.823Z,26.67
2022-12-03T21:15:40.957Z,28.40
2022-12-03T21:18:08.879Z,27.48
2022-12-03T21:20:43.165Z,28.55
2022-12-03T21:23:09.716Z,28.02
2022-12-03T21:25:37.125Z,29.25
2022-12-03T21:28:05.223Z,28.05
2022-12-03T21:30:32.381Z,28.10
2022-12-03T21:32:58.962Z,29.08
2022-12-03T21:35:25.617Z,27.80
2022-12-03T21:37:52.152Z,30.00
2022-12-03T21:40:19.226Z,27.30
2022-12-03T21:42:45.666Z,29.77
2022-12-03T21:45:12.091Z,28.20
2022-12-03T21:47:38.546Z,28.30
2022-12-03T21:50:07.225Z,26.65
2022-12-03T21:52:34.818Z,28.17
2022-12-03T21:55:01.235Z,28.75
2022-12-03T21:57:27.662Z,29.85
2022-12-03T21:59:55.369Z,30.90
2022-12-03T22:02:22.322Z,29.90
2022-12-03T22:04:50.117Z,29.52
2022-12-03T22:07:16.549Z,31.42
2022-12-03T22:09:43.112Z,32.47
2022-12-03T22:12:09.452Z,32.58
2022-12-03T22:14:35.837Z,33.67
2022-12-03T22:17:02.313Z,32.92
2022-12-03T22:19:29.360Z,35.90
2022-12-03T22:21:56.202Z,33.63
2022-12-03T22:24:23.673Z,35.97
2022-12-03T22:26:52.127Z,34.30
2022-12-03T22:29:18.590Z,34.60
2022-12-03T22:31:44.975Z,34.42
2022-12-03T22:34:11.409Z,37.85
2022-12-03T22:36:37.817Z,35.70
2022-12-03T22:39:04.787Z,33.58
2022-12-03T22:41:31.180Z,33.72
2022-12-03T22:43:57.602Z,32.67
2022-12-03T22:46:24.383Z,33.75
2022-12-03T22:48:50.945Z,34.13
2022-12-03T22:51:20.390Z,34.10
2022-12-03T22:53:47.787Z,34.00
2022-12-03T22:56:14.576Z,34.72
2022-12-03T22:58:41.329Z,33.95
2022-12-03T23:01:08.138Z,34.08
2022-12-03T23:03:34.771Z,33.85
2022-12-03T23:06:01.175Z,34.22
2022-12-03T23:08:27.678Z,30.98
2022-12-03T23:10:54.052Z,32.78
2022-12-03T23:13:20.764Z,32.80
2022-12-03T23:15:49.799Z,32.63
2022-12-03T23:18:17.333Z,32.55
2022-12-03T23:20:46.398Z,33.20
2022-12-03T23:23:13.000Z,33.35
2022-12-03T23:25:39.563Z,30.77
2022-12-03T23:28:06.487Z,31.17
2022-12-03T23:30:37.397Z,31.52
2022-12-03T23:33:04.870Z,32.00
2022-12-03T23:35:32.178Z,31.77
2022-12-03T23:37:58.793Z,33.42
2022-12-03T23:40:25.154Z,33.78
2022-12-03T23:42:51.636Z,31.30
2022-12-03T23:45:17.978Z,31.48
2022-12-03T23:47:44.330Z,31.67
2022-12-03T23:50:11.076Z,31.60
2022-12-03T23:52:37.847Z,29.52
2022-12-03T23:55:04.516Z,31.92
2022-12-03T23:57:30.967Z,30.92
2022-12-03T23:59:57.573Z,31.15
